Rico, CO

3:32 AM MST on December 29, 2014 (GMT -0700)
Dunton | Change Station
CLOSE
Current Station
Personal Weather Station
Location: Dolores, CO
Elevation: 8862 ft
Nearby Weather Stations

Elev 8862 ft 37.77 °N, 108.09 °W | Updated 11 minutes ago

Overcast
Overcast
11.7 °F
Feels Like 12 °F
N
0.0
Wind Variable Wind from ENE
Gusts 0.0 mph

Today
High -- | Low -- °F
--% Chance of Precip.
Yesterday
High -- | Low -- °F
Precip. -- in
7:26 AM 5:01 PM
First Quarter, 57% visible
Pressure 29.98 in
Visibility 10.0 miles
Clouds Scattered Clouds 4000 ft
Scattered Clouds 5000 ft
Overcast 5500 ft
Windchill 12 °F
Dew Point 9 °F
Humidity 89%
Rainfall 0.00 in
Snow Depth Not available.
UV 0 out of 12
Pollen .40 out of 12
Air Quality Not available.
Flu Activity Not available.
METAR KTEX 290335Z AUTO 00000KT 10SM SCT040 SCT050 OVC055 M07/M12 A2998 RMK AO2 T10741120

More Conditions Fewer Conditions

Pressure 29.98 in
Visibility 10.0 miles
Clouds Scattered Clouds 4000 ft
Scattered Clouds 5000 ft
Overcast 5500 ft
Windchill 12 °F
Dew Point 9 °F
Humidity 89%
Rainfall 0.00 in
Snow Depth Not available.
UV 0 out of 12
Pollen .40 out of 12
Air Quality Not available.
Flu Activity Not available.
METAR KTEX 290335Z AUTO 00000KT 10SM SCT040 SCT050 OVC055 M07/M12 A2998 RMK AO2 T10741120

More Conditions Fewer Conditions

10-Day Weather Forecast

Almanac

Astronomy

Dec. 29, 2014 Rise Set
Actual Time
Civil Twilight
Nautical Twilight
Astronomical Twilight
Moon
Length of Visible Light
Length of Day
Tomorrow will be .
, % of the Moon is Illuminated

Today's Extremes

State Highs State Lows

Community

WunderPhotos

Upload Photos

1,781,563 photos uploaded!

WunderBlogs® & News

Nearby

Air Quality

  Air Quality AQ Index Pollutant
Not available.

Snow Depth

Station Depth Elevation

Earthquake Activity

City Distance Mag. Time & Date
Minimum magnitude displayed is 2.5.

Coastal Water Temperatures

Place Temperature

Nearby Weather Stations